Terminal Aerodrome Forecast
Issued by NWS Flagstaff, AZ

Home | Current Version | Previous Version | Text Only | Print | Product List | Glossary On
Versions: 1 2 3 4 5 6 7 8 9 10 11 12
322
FTUS45 KFGZ 132341
TAFINW
TAF
KINW 132341Z 1400/1424 35006KT P6SM SCT250
     FM140100 27004KT P6SM FEW250
     FM142200 33007KT P6SM SKC=

USA.gov is the U.S. government's official web portal to all federal, state and local government web resources and services.